»·PEaware :: N899M KSEA-KSMF

N899M :: KSEA-KSMF

FLIGHT INFORMATION

Flight Status: Arrived
Operator: Privately registered:
United States
More flights under this callsign
Pilot: Robert C. (30425)
Aircraft: Unknown
(EPIC)
More flights by this aircraft type
Origin: KSEA Seattle-Tacoma Intl
United States
Destination: KSMF Sacramento Intl
United States
More flights between these airports :: More routes between these airports
Route: +SEA7 BTG LMT RBL SAC+
File this flight plan on PilotEdge
Remarks:
Altitude:
(Current/Filed)
25,000ft
Speed:
(Current/Filed)
300kts
Departed: 01-Dec-20 08:48 PM
Arrived: 01-Dec-20 10:45 PM
Distance/Time
Traveled:
527nm/1:56
Distance/Time
To Go:
Arrived

Flight Plot

Page will automatically refresh every two minutes.

Flight plan parsing failed; only flown route is shown


Map Options




Map Legend


Flown Route
Filed Route
Departure Airport
Arrival Airport
Navaid (VOR, NDB)
Fix

Horizontal Profiles

Position Reports

Time Latitude Longitude Heading Altitude Ground
Speed
01-Dec-20 20:14 47.436543 -122.303389 245 473ft 0kts
01-Dec-20 20:16 47.436543 -122.303389 245 473ft 0kts
01-Dec-20 20:17 47.436543 -122.303389 245 473ft 0kts
01-Dec-20 20:18 47.436543 -122.303389 245 473ft 0kts
01-Dec-20 20:19 47.436543 -122.303389 245 473ft 0kts
01-Dec-20 20:20 47.436543 -122.303389 245 473ft 0kts
01-Dec-20 20:21 47.436543 -122.303389 245 473ft 0kts
01-Dec-20 20:22 47.436543 -122.303389 245 473ft 0kts
01-Dec-20 20:23 47.436543 -122.303389 245 473ft 0kts
01-Dec-20 20:24 47.436543 -122.303389 245 473ft 0kts
01-Dec-20 20:25 47.436543 -122.303389 245 473ft 0kts
01-Dec-20 20:26 47.436543 -122.303389 245 473ft 0kts
01-Dec-20 20:27 47.436543 -122.303389 245 473ft 0kts
01-Dec-20 20:28 47.436543 -122.303389 245 473ft 0kts
01-Dec-20 20:29 47.436543 -122.303389 245 473ft 0kts
01-Dec-20 20:30 47.436543 -122.303389 245 473ft 0kts
01-Dec-20 20:31 47.436543 -122.303389 245 473ft 0kts
01-Dec-20 20:32 47.436543 -122.303389 245 473ft 0kts
01-Dec-20 20:33 47.436543 -122.303389 245 473ft 0kts
01-Dec-20 20:34 47.436543 -122.303389 245 473ft 0kts
01-Dec-20 20:34 47.436543 -122.303389 245 473ft 0kts
01-Dec-20 20:36 47.436543 -122.303389 245 473ft 0kts
01-Dec-20 20:36 47.436543 -122.303389 245 473ft 0kts
01-Dec-20 20:38 47.436543 -122.303389 245 473ft 0kts
01-Dec-20 20:38 47.436543 -122.303389 245 473ft 0kts
01-Dec-20 20:40 47.436542 -122.303393 245 473ft 0kts
01-Dec-20 20:40 47.436503 -122.303560 259 473ft 0kts
01-Dec-20 20:41 47.435218 -122.305395 182 473ft 9kts
01-Dec-20 20:42 47.432881 -122.305572 184 473ft 8kts
01-Dec-20 20:43 47.431725 -122.306554 270 473ft 0kts
01-Dec-20 20:44 47.431725 -122.306554 270 473ft 0kts
01-Dec-20 20:45 47.431725 -122.306554 270 473ft 0kts
01-Dec-20 20:46 47.431725 -122.306587 269 473ft 0kts
01-Dec-20 20:47 47.442360 -122.308074 0 509ft 131kts
01-Dec-20 20:48 47.487194 -122.309404 356 2325ft 188kts
01-Dec-20 20:49 47.541410 -122.312782 0 4542ft 202kts
01-Dec-20 20:50 47.577332 -122.352724 242 6799ft 215kts
01-Dec-20 20:51 47.535863 -122.417760 225 9039ft 222kts
01-Dec-20 20:52 47.487375 -122.465524 170 11286ft 217kts
01-Dec-20 20:53 47.426908 -122.463055 178 13476ft 219kts
01-Dec-20 20:54 47.366834 -122.466562 180 15555ft 217kts
01-Dec-20 20:55 47.306899 -122.471068 181 17443ft 216kts
01-Dec-20 20:56 47.247942 -122.475493 182 19327ft 209kts
01-Dec-20 20:57 47.191849 -122.479963 182 21195ft 196kts
01-Dec-20 20:58 47.131198 -122.484639 183 22706ft 244kts
01-Dec-20 20:59 47.059354 -122.490277 182 24155ft 270kts
01-Dec-20 21:00 46.982983 -122.496288 183 25460ft 284kts
01-Dec-20 21:01 46.898146 -122.502910 182 25486ft 322kts
01-Dec-20 21:02 46.806515 -122.509899 182 25475ft 337kts
01-Dec-20 21:03 46.712236 -122.517263 183 25469ft 342kts
01-Dec-20 21:04 46.616971 -122.524740 183 25472ft 344kts
01-Dec-20 21:05 46.521731 -122.531985 182 25476ft 344kts
01-Dec-20 21:06 46.425892 -122.539433 183 25461ft 345kts
01-Dec-20 21:07 46.330215 -122.546685 183 25457ft 345kts
01-Dec-20 21:08 46.234374 -122.554095 183 25458ft 345kts
01-Dec-20 21:09 46.138636 -122.561396 183 25448ft 345kts
01-Dec-20 21:10 46.042702 -122.568611 183 25443ft 345kts
01-Dec-20 21:11 45.947104 -122.575952 183 25419ft 344kts
01-Dec-20 21:12 45.852586 -122.582961 183 25405ft 341kts
01-Dec-20 21:13 45.757935 -122.589527 182 25401ft 339kts
01-Dec-20 21:14 45.673969 -122.575166 168 25402ft 339kts
01-Dec-20 21:15 45.581674 -122.549345 168 25402ft 339kts
01-Dec-20 21:16 45.489364 -122.523502 168 25402ft 339kts
01-Dec-20 21:17 45.397088 -122.516704 188 25399ft 338kts
01-Dec-20 21:18 45.304810 -122.495219 169 25388ft 339kts
01-Dec-20 21:19 45.212263 -122.471595 169 25378ft 339kts
01-Dec-20 21:20 45.119315 -122.447852 169 25360ft 339kts
01-Dec-20 21:21 45.026782 -122.424445 169 25357ft 338kts
01-Dec-20 21:22 44.934217 -122.401310 169 25357ft 337kts
01-Dec-20 21:23 44.842157 -122.378329 169 25357ft 336kts
01-Dec-20 21:24 44.750498 -122.355455 169 25352ft 335kts
01-Dec-20 21:25 44.659568 -122.332751 169 25345ft 335kts
01-Dec-20 21:26 44.568130 -122.309912 169 25342ft 334kts
01-Dec-20 21:27 44.476810 -122.289788 183 25326ft 334kts
01-Dec-20 21:28 44.384924 -122.277208 169 25376ft 332kts
01-Dec-20 21:29 44.294068 -122.254594 169 25426ft 332kts
01-Dec-20 21:30 44.203336 -122.231443 169 25443ft 333kts
01-Dec-20 21:31 44.112317 -122.208267 169 25459ft 333kts
01-Dec-20 21:32 44.021376 -122.185259 169 25475ft 333kts
01-Dec-20 21:33 43.930544 -122.162281 169 25490ft 333kts
01-Dec-20 21:34 43.839465 -122.139655 169 25493ft 333kts
01-Dec-20 21:35 43.748242 -122.116807 169 25493ft 333kts
01-Dec-20 21:36 43.657119 -122.093963 169 25493ft 333kts
01-Dec-20 21:37 43.566181 -122.071231 169 25493ft 333kts
01-Dec-20 21:38 43.475016 -122.048540 169 25474ft 334kts
01-Dec-20 21:39 43.383646 -122.025872 169 25433ft 334kts
01-Dec-20 21:40 43.292187 -122.003249 169 25401ft 334kts
01-Dec-20 21:41 43.200934 -121.980748 169 25361ft 335kts
01-Dec-20 21:42 43.109473 -121.958264 169 25361ft 334kts
01-Dec-20 21:43 43.018007 -121.935833 170 25374ft 333kts
01-Dec-20 21:44 42.927976 -121.913886 169 25373ft 326kts
01-Dec-20 21:45 42.839480 -121.892548 169 25374ft 323kts
01-Dec-20 21:46 42.751164 -121.871121 169 25375ft 322kts
01-Dec-20 21:47 42.662990 -121.849748 169 25375ft 322kts
01-Dec-20 21:48 42.575139 -121.828527 169 25375ft 322kts
01-Dec-20 21:49 42.487331 -121.807377 169 25374ft 322kts
01-Dec-20 21:50 42.399160 -121.786201 169 25374ft 321kts
01-Dec-20 21:51 42.311494 -121.765204 169 25374ft 321kts
01-Dec-20 21:52 42.223366 -121.744156 169 25374ft 321kts
01-Dec-20 21:53 42.135422 -121.724447 183 25350ft 322kts
01-Dec-20 21:54 42.047045 -121.724651 161 25388ft 320kts
01-Dec-20 21:55 41.960281 -121.720274 191 25375ft 321kts
01-Dec-20 21:56 41.873342 -121.746795 191 25375ft 322kts
01-Dec-20 21:57 41.786373 -121.775343 192 25375ft 322kts
01-Dec-20 21:58 41.699366 -121.803922 192 25372ft 323kts
01-Dec-20 21:59 41.612082 -121.831173 191 25365ft 323kts
01-Dec-20 22:00 41.524528 -121.857606 191 25361ft 323kts
01-Dec-20 22:01 41.437119 -121.883916 191 25359ft 323kts
01-Dec-20 22:02 41.349602 -121.910181 191 25357ft 323kts
01-Dec-20 22:03 41.262320 -121.936280 191 25347ft 323kts
01-Dec-20 22:04 41.174435 -121.962516 191 25249ft 325kts
01-Dec-20 22:05 41.086192 -121.988708 191 25173ft 325kts
01-Dec-20 22:06 40.997590 -122.011925 190 25172ft 324kts
01-Dec-20 22:08 40.908820 -122.033650 190 25173ft 325kts
01-Dec-20 22:09 40.819836 -122.055318 190 25173ft 326kts
01-Dec-20 22:10 40.730981 -122.077077 190 25182ft 325kts
01-Dec-20 22:11 40.642320 -122.098979 190 25182ft 324kts
01-Dec-20 22:12 40.554231 -122.120659 190 25182ft 323kts
01-Dec-20 22:13 40.465882 -122.142345 190 25183ft 323kts
01-Dec-20 22:14 40.379176 -122.163567 190 24638ft 304kts
01-Dec-20 22:15 40.298400 -122.183384 190 23623ft 289kts
01-Dec-20 22:16 40.220481 -122.202666 190 22616ft 283kts
01-Dec-20 22:17 40.143533 -122.221876 190 21529ft 283kts
01-Dec-20 22:18 40.067548 -122.214514 159 20346ft 281kts
01-Dec-20 22:19 39.995444 -122.175438 158 19144ft 281kts
01-Dec-20 22:20 39.922782 -122.138048 158 17939ft 280kts
01-Dec-20 22:21 39.850803 -122.101239 158 16578ft 274kts
01-Dec-20 22:22 39.780353 -122.067153 160 14980ft 269kts
01-Dec-20 22:23 39.709970 -122.036581 161 13380ft 266kts
01-Dec-20 22:23 39.651700 -122.011939 161 12049ft 264kts
01-Dec-20 22:25 39.570283 -121.977826 161 10179ft 263kts
01-Dec-20 22:25 39.516044 -121.955285 161 10011ft 228kts
01-Dec-20 22:26 39.459075 -121.931754 161 10012ft 206kts
01-Dec-20 22:27 39.404912 -121.909432 161 10012ft 205kts
01-Dec-20 22:28 39.350284 -121.886879 161 10008ft 206kts
01-Dec-20 22:29 39.295579 -121.864248 161 10008ft 206kts
01-Dec-20 22:30 39.240746 -121.841522 161 10009ft 207kts
01-Dec-20 22:31 39.185632 -121.818643 161 9439ft 209kts
01-Dec-20 22:32 39.131559 -121.796260 161 8030ft 199kts
01-Dec-20 22:33 39.083097 -121.776423 161 6734ft 168kts
01-Dec-20 22:34 39.039835 -121.758974 161 5322ft 160kts
01-Dec-20 22:35 39.003404 -121.744101 155 4915ft 112kts
01-Dec-20 22:36 38.972447 -121.718354 142 4188ft 165kts
01-Dec-20 22:37 38.933957 -121.680695 142 3374ft 174kts
01-Dec-20 22:38 38.894539 -121.644841 146 2662ft 174kts
01-Dec-20 22:39 38.852465 -121.613754 150 1963ft 175kts
01-Dec-20 22:40 38.806286 -121.599341 179 1799ft 173kts
01-Dec-20 22:41 38.757923 -121.600226 179 1037ft 152kts
01-Dec-20 22:42 38.722553 -121.600818 179 372ft 118kts
01-Dec-20 22:43 38.696424 -121.601430 173 23ft 49kts
01-Dec-20 22:44 38.690524 -121.599437 96 23ft 10kts
01-Dec-20 22:46 38.685820 -121.598821 183 22ft 19kts
01-Dec-20 22:46 38.683827 -121.597907 88 21ft 9kts
01-Dec-20 22:47 38.682762 -121.595979 177 21ft 0kts
01-Dec-20 22:48 38.682762 -121.595979 177 21ft 0kts
01-Dec-20 22:49 38.682762 -121.595979 177 21ft 0kts
01-Dec-20 22:50 38.682762 -121.595979 177 21ft 0kts

Navigation Log

Ident Type
Flight plan parsing failed, navigation log unavailable